Time;durP1;ratioP1;P1;durP2;ratioP2;P2;SDS_P1;SDS_P2;PMS_P1;PMS_P2;Temp;Humidity;BMP_temperature;BMP_pressure;BME280_temperature;BME280_humidity;BME280_pressure;Samples;Min_cycle;Max_cycle;Signal;HPM_P1;HPM_P2
2023/12/04 00:01:29;;;;;;;6.35;0.98;;;23.90;91.10;;;;;;5044765;28;20047;-72
2023/12/04 00:03:56;;;;;;;5.93;1.20;;;23.90;91.70;;;;;;5045800;28;20056;-71
2023/12/04 00:06:24;;;;;;;5.47;1.02;;;23.80;92.20;;;;;;5046994;28;20025;-70
2023/12/04 00:08:51;;;;;;;5.03;0.95;;;23.80;92.60;;;;;;5047135;28;20127;-71
2023/12/04 00:11:19;;;;;;;4.80;1.10;;;24.00;92.20;;;;;;5045701;28;20028;-70
2023/12/04 00:13:46;;;;;;;4.53;0.77;;;24.00;92.10;;;;;;5052777;28;20029;-71
2023/12/04 00:16:13;;;;;;;6.18;1.20;;;24.10;91.90;;;;;;5047944;28;20029;-72
2023/12/04 00:18:41;;;;;;;3.38;0.70;;;24.40;91.70;;;;;;5045901;28;20029;-71
2023/12/04 00:21:08;;;;;;;7.97;1.08;;;24.50;91.70;;;;;;5054530;28;20048;-70
2023/12/04 00:23:35;;;;;;;7.10;1.23;;;24.50;92.30;;;;;;5046530;28;20415;-71
2023/12/04 00:26:03;;;;;;;4.45;1.02;;;24.70;92.50;;;;;;5055967;28;20029;-71
2023/12/04 00:28:30;;;;;;;4.30;0.70;;;25.10;90.20;;;;;;5051522;28;20422;-71
2023/12/04 00:30:57;;;;;;;5.25;0.95;;;25.10;90.50;;;;;;5051454;28;20028;-71
2023/12/04 00:33:25;;;;;;;7.85;1.20;;;25.50;89.40;;;;;;5052760;28;20374;-70
2023/12/04 00:35:52;;;;;;;4.07;0.95;;;25.90;87.10;;;;;;5056408;28;20374;-70
2023/12/04 00:38:20;;;;;;;7.22;1.20;;;25.70;89.20;;;;;;5052726;28;20027;-70
2023/12/04 00:40:47;;;;;;;9.13;1.02;;;25.90;86.60;;;;;;5051981;28;20131;-71
2023/12/04 00:43:14;;;;;;;3.72;0.60;;;25.90;86.00;;;;;;5056927;28;20112;-72
2023/12/04 00:45:42;;;;;;;6.05;0.90;;;26.20;86.40;;;;;;5055878;28;20066;-72
2023/12/04 00:48:09;;;;;;;5.55;1.55;;;26.40;85.10;;;;;;5055384;28;20045;-71
2023/12/04 00:50:36;;;;;;;6.68;1.00;;;26.50;84.20;;;;;;5056631;28;20017;-71
2023/12/04 00:53:04;;;;;;;6.53;1.10;;;27.10;83.80;;;;;;5055594;28;20427;-71
2023/12/04 00:55:31;;;;;;;6.40;1.20;;;27.30;82.60;;;;;;5052862;28;20024;-71
2023/12/04 00:57:58;;;;;;;10.98;1.20;;;28.00;82.50;;;;;;5058585;28;20029;-71
2023/12/04 01:00:26;;;;;;;6.78;1.00;;;28.20;77.50;;;;;;5055769;28;20037;-71
2023/12/04 01:02:53;;;;;;;4.13;0.75;;;28.20;79.10;;;;;;5053187;28;20036;-71
2023/12/04 01:05:20;;;;;;;5.93;1.38;;;28.80;82.80;;;;;;5058635;28;20029;-72
2023/12/04 01:07:48;;;;;;;1.92;0.70;;;29.50;77.40;;;;;;5054627;28;20021;-71
2023/12/04 01:10:15;;;;;;;6.75;0.85;;;29.00;72.50;;;;;;5056763;28;20122;-72
2023/12/04 01:12:43;;;;;;;5.63;0.90;;;28.80;76.40;;;;;;5061613;28;20040;-72
2023/12/04 01:15:10;;;;;;;4.78;0.90;;;28.70;72.40;;;;;;5049596;28;20028;-71
2023/12/04 01:17:38;;;;;;;3.83;0.70;;;28.50;72.50;;;;;;5058480;28;20028;-71
2023/12/04 01:20:07;;;;;;;4.38;0.52;;;28.90;71.60;;;;;;5047641;28;20033;-72
2023/12/04 01:22:35;;;;;;;1.70;0.60;;;29.00;71.20;;;;;;5050606;28;20024;-71
2023/12/04 01:25:03;;;;;;;2.78;0.60;;;28.90;70.30;;;;;;5056814;28;20582;-71
2023/12/04 01:27:30;;;;;;;2.75;0.50;;;29.50;68.80;;;;;;5046093;28;20017;-71
2023/12/04 01:29:57;;;;;;;1.60;0.60;;;29.70;68.70;;;;;;5051095;28;20025;-70
2023/12/04 01:32:25;;;;;;;2.90;0.70;;;29.70;67.90;;;;;;5047581;28;20118;-71
2023/12/04 01:34:52;;;;;;;3.72;0.70;;;29.60;66.20;;;;;;5043426;28;20022;-71
2023/12/04 01:37:20;;;;;;;4.65;1.05;;;29.90;68.90;;;;;;5045549;28;20069;-71
2023/12/04 01:39:48;;;;;;;3.90;1.00;;;30.40;67.80;;;;;;5048182;28;20395;-72
2023/12/04 01:42:15;;;;;;;4.47;0.82;;;30.20;64.20;;;;;;5048922;28;20036;-72
2023/12/04 01:44:43;;;;;;;2.72;0.52;;;30.60;65.00;;;;;;5050027;28;20075;-71
2023/12/04 01:47:13;;;;;;;3.65;0.70;;;30.80;64.30;;;;;;5064135;28;20032;-72
2023/12/04 01:49:41;;;;;;;1.90;0.60;;;30.10;62.00;;;;;;5054159;28;20603;-71
2023/12/04 01:52:09;;;;;;;1.77;0.43;;;29.50;64.60;;;;;;5060786;28;20151;-70
2023/12/04 01:54:37;;;;;;;3.80;0.50;;;29.80;64.80;;;;;;5047040;28;20450;-72
2023/12/04 01:57:09;;;;;;;5.13;0.77;;;29.40;65.60;;;;;;5051613;28;20094;-71
2023/12/04 01:59:38;;;;;;;2.97;0.50;;;30.00;65.20;;;;;;5051630;28;20081;-71
2023/12/04 02:02:06;;;;;;;4.30;0.70;;;29.80;63.70;;;;;;5050165;28;20382;-72
2023/12/04 02:04:34;;;;;;;2.08;0.57;;;30.00;63.50;;;;;;5054781;28;20040;-71
2023/12/04 02:07:02;;;;;;;3.70;0.60;;;29.80;65.50;;;;;;5051159;28;20036;-72
2023/12/04 02:09:32;;;;;;;5.47;0.80;;;29.30;65.20;;;;;;5052919;28;20102;-72
2023/12/04 02:12:00;;;;;;;4.05;0.70;;;28.80;65.40;;;;;;5054866;28;20029;-71
2023/12/04 02:14:28;;;;;;;4.15;0.82;;;28.60;65.80;;;;;;5055480;28;20386;-71
2023/12/04 02:16:58;;;;;;;4.82;0.93;;;28.70;66.60;;;;;;5048228;28;20021;-73
2023/12/04 02:19:26;;;;;;;3.15;0.68;;;29.10;65.50;;;;;;5050558;28;20040;-71
2023/12/04 02:21:54;;;;;;;2.13;0.70;;;28.90;67.40;;;;;;5047300;28;20043;-71
2023/12/04 02:24:22;;;;;;;2.35;0.80;;;28.40;68.50;;;;;;5051423;28;20029;-72
2023/12/04 02:27:04;;;;;;;3.47;0.63;;;28.30;67.00;;;;;;5054702;28;20032;-72
2023/12/04 02:29:37;;;;;;;4.32;0.75;;;28.30;67.60;;;;;;5053178;28;20021;-71
2023/12/04 02:32:06;;;;;;;3.10;0.80;;;28.00;67.30;;;;;;5050668;28;20056;-71
2023/12/04 02:34:35;;;;;;;3.08;0.55;;;27.50;68.40;;;;;;5053918;28;20029;-72
2023/12/04 02:37:05;;;;;;;3.70;0.70;;;27.40;70.00;;;;;;5057304;28;20108;-73
2023/12/04 02:39:34;;;;;;;5.30;1.00;;;27.20;71.10;;;;;;5046189;28;20045;-73
2023/12/04 02:42:03;;;;;;;5.22;1.17;;;27.30;69.90;;;;;;5047885;28;20094;-73
2023/12/04 02:44:35;;;;;;;3.90;0.70;;;28.20;72.20;;;;;;5051103;28;20079;-73
2023/12/04 02:47:03;;;;;;;4.15;0.45;;;29.60;71.90;;;;;;5049142;28;20482;-74
2023/12/04 02:49:30;;;;;;;3.13;0.88;;;30.60;65.30;;;;;;5046838;28;20039;-74
2023/12/04 02:51:58;;;;;;;5.78;0.77;;;30.90;62.20;;;;;;5049540;28;20025;-73
2023/12/04 02:54:26;;;;;;;3.80;0.80;;;30.00;62.60;;;;;;5040959;28;20390;-72
2023/12/04 02:56:54;;;;;;;1.73;0.80;;;29.40;65.10;;;;;;5047297;28;20032;-72
2023/12/04 02:59:21;;;;;;;2.85;1.00;;;29.00;64.50;;;;;;5043336;28;20053;-73
2023/12/04 03:01:49;;;;;;;4.22;0.63;;;28.50;66.50;;;;;;5023902;28;20044;-73
2023/12/04 03:04:16;;;;;;;3.65;0.80;;;28.60;68.00;;;;;;5040739;28;20048;-72
2023/12/04 03:06:43;;;;;;;7.00;0.95;;;29.30;65.90;;;;;;5044482;28;20039;-72
2023/12/04 03:09:11;;;;;;;3.38;0.88;;;29.60;63.80;;;;;;5043575;28;20024;-73
2023/12/04 03:11:42;;;;;;;3.85;0.70;;;29.70;63.30;;;;;;5047188;28;20501;-72
2023/12/04 03:14:09;;;;;;;4.18;0.77;;;29.50;62.90;;;;;;5044371;28;20167;-73
2023/12/04 03:16:37;;;;;;;3.85;0.80;;;28.90;66.30;;;;;;5042739;28;20025;-73
2023/12/04 03:19:07;;;;;;;3.63;0.85;;;28.60;66.40;;;;;;5040223;28;20053;-71
2023/12/04 03:21:36;;;;;;;4.70;0.85;;;28.70;65.10;;;;;;5040819;28;20044;-71
2023/12/04 03:24:03;;;;;;;3.88;1.55;;;29.40;67.40;;;;;;5044599;28;20048;-71
2023/12/04 03:26:31;;;;;;;4.88;1.13;;;30.10;63.80;;;;;;5046191;28;20397;-71
2023/12/04 03:28:59;;;;;;;3.38;0.95;;;30.30;62.60;;;;;;5046244;28;20029;-72
2023/12/04 03:31:28;;;;;;;3.45;0.90;;;30.40;62.20;;;;;;5048503;28;20060;-71
2023/12/04 03:33:55;;;;;;;4.18;1.05;;;30.50;62.70;;;;;;5046093;28;20471;-72
2023/12/04 03:36:22;;;;;;;7.25;1.05;;;30.90;62.00;;;;;;5050421;28;20116;-72
2023/12/04 03:38:50;;;;;;;4.60;1.27;;;31.00;61.40;;;;;;5048619;28;20051;-73
2023/12/04 03:41:17;;;;;;;4.78;0.80;;;31.10;61.20;;;;;;5046521;28;20037;-73
2023/12/04 03:43:45;;;;;;;3.05;1.15;;;31.10;59.00;;;;;;5046854;28;20424;-72
2023/12/04 03:46:12;;;;;;;4.15;0.88;;;31.30;60.30;;;;;;5048781;28;20556;-72
2023/12/04 03:48:40;;;;;;;3.13;0.70;;;31.70;60.30;;;;;;5045502;28;20025;-74
2023/12/04 03:51:08;;;;;;;4.53;0.90;;;32.20;60.10;;;;;;5048690;28;20099;-73
2023/12/04 03:53:35;;;;;;;6.13;1.08;;;32.40;60.00;;;;;;5050485;28;20021;-72
2023/12/04 03:56:03;;;;;;;4.90;1.17;;;32.40;59.80;;;;;;5050154;28;20040;-72
2023/12/04 03:58:30;;;;;;;3.03;0.80;;;32.40;61.60;;;;;;5049212;28;20079;-71
2023/12/04 04:00:58;;;;;;;2.95;0.90;;;32.20;56.40;;;;;;5052660;28;20053;-72
2023/12/04 04:03:25;;;;;;;3.33;0.90;;;31.50;59.20;;;;;;5051943;28;20047;-72
2023/12/04 04:05:52;;;;;;;5.85;1.00;;;31.10;59.90;;;;;;5050454;28;20501;-72
2023/12/04 04:08:20;;;;;;;6.20;1.33;;;30.10;59.70;;;;;;5051720;28;20024;-71
2023/12/04 04:10:47;;;;;;;3.63;0.93;;;29.90;61.80;;;;;;5049952;28;20024;-71
2023/12/04 04:13:14;;;;;;;7.68;1.05;;;29.40;62.50;;;;;;5054233;28;20024;-72
2023/12/04 04:15:42;;;;;;;4.53;0.90;;;29.30;62.70;;;;;;5045574;28;20056;-73
2023/12/04 04:18:09;;;;;;;4.43;1.10;;;29.00;64.10;;;;;;5054536;28;20428;-72
2023/12/04 04:20:37;;;;;;;3.17;0.85;;;29.30;63.60;;;;;;5044441;28;20033;-71
2023/12/04 04:23:05;;;;;;;4.43;0.85;;;29.40;62.40;;;;;;5046460;28;20029;-72
2023/12/04 04:25:32;;;;;;;5.75;1.10;;;29.00;63.40;;;;;;5047583;28;20389;-73
2023/12/04 04:27:59;;;;;;;5.45;0.90;;;29.40;63.10;;;;;;5070166;28;20082;-72
2023/12/04 04:30:27;;;;;;;5.35;0.95;;;29.90;62.70;;;;;;5052335;28;20021;-73
2023/12/04 04:32:54;;;;;;;3.10;0.57;;;30.00;61.90;;;;;;5054701;28;20033;-72
2023/12/04 04:35:21;;;;;;;4.28;0.82;;;30.40;63.30;;;;;;5052738;28;20071;-73
2023/12/04 04:37:49;;;;;;;6.43;0.90;;;30.60;62.90;;;;;;5053999;28;20070;-73
2023/12/04 04:40:16;;;;;;;8.43;1.00;;;30.50;61.70;;;;;;5053037;28;20484;-73
2023/12/04 04:42:44;;;;;;;2.75;0.77;;;30.40;61.40;;;;;;5051161;28;20036;-72
2023/12/04 04:45:11;;;;;;;2.05;0.52;;;30.40;61.20;;;;;;5060006;28;20017;-73
2023/12/04 04:47:39;;;;;;;3.85;0.80;;;30.50;61.50;;;;;;5055727;28;21520;-73
2023/12/04 04:50:06;;;;;;;3.90;0.60;;;30.60;61.60;;;;;;5045205;28;20029;-72
2023/12/04 04:52:34;;;;;;;4.78;1.10;;;30.70;61.10;;;;;;5057330;28;20593;-72
2023/12/04 04:55:01;;;;;;;3.58;0.80;;;30.70;62.50;;;;;;5049369;28;20037;-73
2023/12/04 04:57:29;;;;;;;4.95;1.10;;;30.50;61.80;;;;;;5048845;28;20032;-72
2023/12/04 04:59:56;;;;;;;3.15;1.10;;;30.50;61.50;;;;;;5044624;28;20057;-71
2023/12/04 05:02:23;;;;;;;2.67;0.85;;;30.60;63.20;;;;;;5056337;28;20033;-71
2023/12/04 05:04:51;;;;;;;3.33;0.70;;;30.70;62.20;;;;;;5040555;28;20497;-72
2023/12/04 05:07:18;;;;;;;3.35;0.70;;;30.70;61.90;;;;;;5042106;28;20041;-72
2023/12/04 05:09:45;;;;;;;6.38;0.82;;;30.50;62.30;;;;;;5043780;28;20393;-72
2023/12/04 05:12:13;;;;;;;10.48;0.93;;;30.10;61.80;;;;;;5042731;28;20033;-71
2023/12/04 05:14:40;;;;;;;2.67;0.70;;;29.60;61.90;;;;;;5064818;28;20110;-71
2023/12/04 05:17:07;;;;;;;2.50;0.40;;;29.60;65.20;;;;;;5049578;28;20079;-73
2023/12/04 05:19:35;;;;;;;2.47;0.57;;;29.70;64.10;;;;;;5045187;28;20044;-71
2023/12/04 05:22:06;;;;;;;4.30;0.90;;;29.70;64.80;;;;;;5046766;28;20037;-73
2023/12/04 05:24:37;;;;;;;3.47;0.73;;;29.80;65.80;;;;;;5048344;28;20025;-71
2023/12/04 05:27:04;;;;;;;7.78;0.47;;;29.90;66.00;;;;;;5051439;28;20124;-71
2023/12/04 05:29:35;;;;;;;5.65;0.70;;;29.70;65.20;;;;;;5056697;28;20469;-71
2023/12/04 05:32:02;;;;;;;5.57;0.85;;;29.00;65.50;;;;;;5047318;28;20036;-70
2023/12/04 05:34:30;;;;;;;4.82;0.80;;;28.50;66.20;;;;;;5050703;28;20079;-71
2023/12/04 05:36:57;;;;;;;5.68;0.80;;;28.60;67.40;;;;;;5051291;28;20029;-71
2023/12/04 05:39:25;;;;;;;4.45;0.52;;;29.00;67.00;;;;;;5048465;28;20029;-71
2023/12/04 05:41:53;;;;;;;2.67;0.70;;;29.20;66.80;;;;;;5055331;28;20029;-72
2023/12/04 05:44:20;;;;;;;6.18;0.60;;;29.10;67.00;;;;;;5053169;28;20033;-72
2023/12/04 05:46:47;;;;;;;2.88;0.45;;;29.10;66.00;;;;;;5057633;28;20111;-72
2023/12/04 05:49:15;;;;;;;3.92;0.60;;;29.30;66.60;;;;;;5054095;28;20031;-72
2023/12/04 05:51:45;;;;;;;5.07;0.70;;;29.20;66.80;;;;;;5047477;28;20502;-72
2023/12/04 05:54:13;;;;;;;1.67;0.55;;;29.10;66.00;;;;;;5069364;28;20063;-71
2023/12/04 05:56:40;;;;;;;10.38;1.30;;;29.00;67.10;;;;;;5048462;28;20964;-71
2023/12/04 05:59:08;;;;;;;4.75;0.55;;;28.90;67.30;;;;;;5051896;28;20048;-72
2023/12/04 06:01:35;;;;;;;1.58;0.40;;;28.80;67.10;;;;;;5049924;28;20044;-72
2023/12/04 06:04:03;;;;;;;1.90;0.52;;;28.70;67.20;;;;;;5051373;28;20119;-70
2023/12/04 06:06:30;;;;;;;3.88;0.77;;;28.80;66.90;;;;;;5048180;28;20033;-74
2023/12/04 06:08:57;;;;;;;3.22;0.73;;;28.80;66.80;;;;;;5052037;28;20381;-71
2023/12/04 06:11:28;;;;;;;3.97;0.40;;;28.60;67.10;;;;;;5052065;28;20104;-72
2023/12/04 06:13:55;;;;;;;2.88;0.60;;;28.40;67.00;;;;;;5056227;28;20036;-70
2023/12/04 06:16:23;;;;;;;2.92;0.45;;;28.50;67.30;;;;;;5053839;28;20032;-72
2023/12/04 06:18:50;;;;;;;3.95;0.50;;;28.60;67.20;;;;;;5059467;28;20032;-69
2023/12/04 06:21:18;;;;;;;2.30;0.45;;;28.60;67.10;;;;;;5049715;28;20068;-71
2023/12/04 06:23:46;;;;;;;1.77;0.60;;;28.40;67.90;;;;;;5046695;28;20035;-71
2023/12/04 06:26:14;;;;;;;3.65;0.80;;;28.20;67.70;;;;;;5054537;28;20033;-72
2023/12/04 06:28:41;;;;;;;2.92;0.95;;;28.20;68.30;;;;;;5052075;28;20025;-71
2023/12/04 06:31:09;;;;;;;3.75;0.70;;;28.10;68.40;;;;;;5053942;28;20036;-71
2023/12/04 06:33:37;;;;;;;1.63;0.52;;;27.90;68.10;;;;;;5053567;28;20059;-71
2023/12/04 06:36:07;;;;;;;4.78;0.50;;;27.90;68.50;;;;;;5050469;28;20025;-70
2023/12/04 06:38:36;;;;;;;4.95;0.47;;;27.60;68.80;;;;;;5050629;28;20033;-71
2023/12/04 06:41:04;;;;;;;3.53;0.30;;;27.60;69.10;;;;;;5057756;28;20041;-71
2023/12/04 06:43:35;;;;;;;2.05;0.45;;;27.60;69.40;;;;;;5047318;28;20078;-70
2023/12/04 06:46:02;;;;;;;3.60;0.40;;;27.70;69.40;;;;;;5049145;28;20029;-72
2023/12/04 06:48:30;;;;;;;5.22;0.68;;;27.50;69.00;;;;;;5048309;28;20462;-71
2023/12/04 06:50:57;;;;;;;8.30;1.05;;;27.50;69.50;;;;;;5047725;28;20055;-71
2023/12/04 06:53:25;;;;;;;26.45;4.03;;;27.40;69.90;;;;;;5046003;28;20132;-77
2023/12/04 06:55:52;;;;;;;21.17;4.10;;;27.40;70.40;;;;;;5044794;28;20557;-72
2023/12/04 06:58:20;;;;;;;6.90;1.05;;;27.30;69.70;;;;;;5048807;28;20123;-73
2023/12/04 07:00:48;;;;;;;3.40;0.60;;;27.20;69.80;;;;;;5041786;28;20083;-73
2023/12/04 07:03:16;;;;;;;5.28;0.80;;;27.20;70.20;;;;;;5043071;28;20363;-73
2023/12/04 07:05:43;;;;;;;5.90;1.42;;;27.10;70.20;;;;;;5042382;28;20039;-72
2023/12/04 07:08:11;;;;;;;3.83;0.52;;;27.00;70.80;;;;;;5045915;28;20493;-73
2023/12/04 07:10:38;;;;;;;10.95;2.85;;;26.90;70.40;;;;;;5042438;28;20048;-73
2023/12/04 07:13:05;;;;;;;9.73;2.08;;;27.00;71.30;;;;;;5041550;28;20112;-72
2023/12/04 07:15:33;;;;;;;5.13;0.75;;;27.00;70.90;;;;;;5049174;28;20367;-73
2023/12/04 07:18:01;;;;;;;5.25;0.70;;;26.70;71.80;;;;;;5057069;28;20033;-74
2023/12/04 07:20:28;;;;;;;3.33;0.40;;;26.50;71.40;;;;;;5041606;28;20516;-73
2023/12/04 07:22:57;;;;;;;1.25;0.47;;;26.40;71.70;;;;;;5051917;28;20518;-72
2023/12/04 07:25:25;;;;;;;3.10;0.63;;;26.40;71.90;;;;;;5058672;28;20116;-72
2023/12/04 07:27:53;;;;;;;1.48;0.40;;;26.30;71.90;;;;;;5051287;28;20028;-72
2023/12/04 07:30:20;;;;;;;4.00;0.40;;;26.30;72.20;;;;;;5056130;28;20026;-72
2023/12/04 07:32:48;;;;;;;3.38;0.43;;;26.30;72.20;;;;;;5055797;28;20029;-71
2023/12/04 07:35:15;;;;;;;3.58;0.25;;;26.20;72.60;;;;;;5059063;28;20028;-72
2023/12/04 07:37:43;;;;;;;3.95;0.50;;;26.20;72.60;;;;;;5055599;28;20029;-72
2023/12/04 07:40:11;;;;;;;4.30;0.75;;;26.20;72.50;;;;;;5060977;28;20055;-72
2023/12/04 07:42:38;;;;;;;1.05;0.20;;;26.10;73.30;;;;;;5056806;28;20029;-73
2023/12/04 07:45:06;;;;;;;3.70;0.47;;;26.10;72.90;;;;;;5052729;28;20087;-72
2023/12/04 07:47:33;;;;;;;2.17;0.40;;;26.00;73.10;;;;;;5074994;28;20032;-72
2023/12/04 07:50:01;;;;;;;6.88;0.50;;;25.90;73.30;;;;;;5056674;28;20156;-72
2023/12/04 07:52:28;;;;;;;2.92;0.40;;;25.80;73.80;;;;;;5058070;28;20051;-72
2023/12/04 07:54:55;;;;;;;3.00;0.30;;;25.80;74.00;;;;;;5060812;28;20585;-72
2023/12/04 07:57:23;;;;;;;3.50;0.30;;;25.80;74.30;;;;;;5044368;28;20494;-72
2023/12/04 07:59:51;;;;;;;3.30;0.40;;;25.80;74.50;;;;;;5052861;28;20530;-71
2023/12/04 08:02:18;;;;;;;0.60;0.30;;;25.80;74.50;;;;;;5057838;28;20075;-72
2023/12/04 08:04:46;;;;;;;0.82;0.30;;;25.80;74.40;;;;;;5051027;28;20029;-74
2023/12/04 08:07:13;;;;;;;2.40;0.43;;;25.80;74.70;;;;;;5053323;28;20032;-73
2023/12/04 08:09:41;;;;;;;2.28;0.32;;;25.70;74.80;;;;;;5058437;28;20048;-73
2023/12/04 08:12:08;;;;;;;0.95;0.30;;;25.50;75.20;;;;;;5050776;28;20020;-73
2023/12/04 08:14:36;;;;;;;1.08;0.25;;;25.40;75.40;;;;;;5063106;28;20029;-73
2023/12/04 08:17:03;;;;;;;4.47;1.17;;;25.20;75.60;;;;;;5049951;28;20034;-73
2023/12/04 08:19:31;;;;;;;1.02;0.20;;;25.10;76.10;;;;;;5048755;28;20534;-73
2023/12/04 08:21:58;;;;;;;1.00;0.30;;;24.90;76.60;;;;;;5049761;28;20033;-73
2023/12/04 08:24:25;;;;;;;1.45;0.52;;;24.80;77.00;;;;;;5050391;28;20041;-74
2023/12/04 08:26:53;;;;;;;2.50;0.20;;;24.70;77.30;;;;;;5051023;28;20033;-73
2023/12/04 08:29:20;;;;;;;3.75;0.22;;;24.60;77.90;;;;;;5051042;28;20034;-73
2023/12/04 08:31:48;;;;;;;3.63;0.40;;;24.50;77.90;;;;;;5044231;28;20104;-73
2023/12/04 08:34:15;;;;;;;1.35;0.52;;;24.40;78.70;;;;;;5047282;28;20700;-73
2023/12/04 08:36:42;;;;;;;7.30;0.73;;;24.30;78.70;;;;;;5047042;28;20017;-73
2023/12/04 08:39:10;;;;;;;5.60;0.65;;;23.90;80.10;;;;;;5044715;28;20464;-73
2023/12/04 08:41:37;;;;;;;0.70;0.20;;;24.00;80.30;;;;;;5046756;28;20091;-73
2023/12/04 08:44:05;;;;;;;2.95;0.30;;;24.10;79.90;;;;;;5052581;28;20021;-73
2023/12/04 08:46:32;;;;;;;4.05;0.60;;;24.10;80.00;;;;;;5048831;28;20044;-73
2023/12/04 08:48:59;;;;;;;3.80;0.90;;;23.90;80.30;;;;;;5054814;28;20560;-73
2023/12/04 08:51:27;;;;;;;5.70;0.68;;;23.70;81.00;;;;;;5046379;28;20127;-73
2023/12/04 08:53:54;;;;;;;3.95;0.50;;;23.70;81.40;;;;;;5048978;28;20041;-73
2023/12/04 08:56:21;;;;;;;1.23;0.43;;;23.80;81.20;;;;;;5054600;28;20052;-72
2023/12/04 08:58:51;;;;;;;4.95;0.50;;;23.80;81.30;;;;;;5048692;28;20060;-73
2023/12/04 09:01:19;;;;;;;1.00;0.20;;;23.80;81.40;;;;;;5051042;28;20036;-73
2023/12/04 09:03:46;;;;;;;1.88;0.35;;;23.80;81.60;;;;;;5061037;28;20385;-73
2023/12/04 09:06:15;;;;;;;3.45;0.40;;;23.60;82.00;;;;;;5055409;28;20029;-72
2023/12/04 09:08:43;;;;;;;3.42;0.40;;;23.50;82.70;;;;;;5057483;28;20017;-73
2023/12/04 09:11:10;;;;;;;3.10;0.38;;;23.40;82.60;;;;;;5053064;28;20031;-73
2023/12/04 09:13:38;;;;;;;4.50;0.40;;;23.40;83.10;;;;;;5054961;28;20024;-73
2023/12/04 09:16:06;;;;;;;3.00;0.40;;;23.40;83.20;;;;;;5051995;28;20129;-73
2023/12/04 09:18:34;;;;;;;4.85;0.50;;;23.50;83.00;;;;;;5053198;28;20080;-73
2023/12/04 09:21:01;;;;;;;2.38;0.63;;;23.50;83.20;;;;;;5055073;28;20132;-73
2023/12/04 09:23:30;;;;;;;3.22;0.40;;;23.40;83.40;;;;;;5054109;28;20035;-73
2023/12/04 09:25:57;;;;;;;2.35;0.30;;;23.50;83.40;;;;;;5055300;28;20040;-73
2023/12/04 09:28:24;;;;;;;1.98;0.73;;;23.40;83.60;;;;;;5056309;28;20860;-73
2023/12/04 09:30:52;;;;;;;1.08;0.40;;;23.30;84.10;;;;;;5057452;28;20028;-73
2023/12/04 09:33:20;;;;;;;2.78;0.47;;;23.30;84.40;;;;;;5056072;28;20036;-72
2023/12/04 09:35:47;;;;;;;0.95;0.32;;;23.30;84.70;;;;;;5053881;28;20119;-73
2023/12/04 09:38:15;;;;;;;1.70;0.30;;;23.10;85.10;;;;;;5050120;28;20033;-73
2023/12/04 09:40:42;;;;;;;6.80;0.80;;;22.90;85.80;;;;;;5057281;28;20044;-73
2023/12/04 09:43:10;;;;;;;4.82;0.55;;;22.80;86.80;;;;;;5052649;28;20079;-72
2023/12/04 09:45:40;;;;;;;5.22;0.50;;;22.70;87.10;;;;;;5056421;28;20477;-73
2023/12/04 09:48:09;;;;;;;6.70;1.00;;;22.80;87.30;;;;;;5051146;28;20170;-73
2023/12/04 09:50:38;;;;;;;5.50;0.82;;;22.80;87.40;;;;;;5051101;28;20078;-73
2023/12/04 09:53:11;;;;;;;4.18;0.65;;;22.70;88.10;;;;;;5053344;28;20028;-72
2023/12/04 09:55:38;;;;;;;7.88;0.47;;;22.50;88.60;;;;;;5054121;28;20048;-72
2023/12/04 09:58:06;;;;;;;5.93;0.60;;;22.40;89.00;;;;;;5049292;28;20070;-72
2023/12/04 10:00:34;;;;;;;4.30;0.75;;;22.10;90.20;;;;;;5052596;28;20204;-72
2023/12/04 10:03:02;;;;;;;6.82;0.95;;;22.20;90.30;;;;;;5049691;28;20044;-72
2023/12/04 10:05:29;;;;;;;5.78;1.33;;;22.10;90.40;;;;;;5050619;28;20043;-73
2023/12/04 10:07:56;;;;;;;13.43;1.60;;;22.20;90.50;;;;;;5050168;28;20083;-72
2023/12/04 10:10:24;;;;;;;3.67;0.77;;;22.20;90.50;;;;;;5045962;28;20029;-72
2023/12/04 10:12:52;;;;;;;10.32;1.08;;;21.90;90.90;;;;;;5061473;28;20024;-72
2023/12/04 10:15:19;;;;;;;6.97;0.68;;;21.80;91.30;;;;;;5049874;28;20119;-72
2023/12/04 10:17:47;;;;;;;13.55;1.15;;;21.80;91.50;;;;;;5043982;28;20774;-72
2023/12/04 10:20:20;;;;;;;5.10;0.70;;;22.00;91.30;;;;;;5048766;28;20052;-73
2023/12/04 10:22:56;;;;;;;1.48;0.40;;;21.90;91.20;;;;;;5044346;28;20020;-72
2023/12/04 10:25:26;;;;;;;7.07;0.98;;;21.80;91.60;;;;;;5045712;28;20025;-72
2023/12/04 10:27:56;;;;;;;3.88;0.90;;;21.70;91.70;;;;;;5047209;28;20043;-72
2023/12/04 10:30:33;;;;;;;3.25;1.02;;;21.60;92.10;;;;;;5049577;28;20059;-73
2023/12/04 10:33:04;;;;;;;3.78;0.47;;;21.50;92.40;;;;;;5047383;28;20041;-72
2023/12/04 10:35:36;;;;;;;1.27;0.40;;;21.50;92.40;;;;;;5051230;28;20045;-72
2023/12/04 10:38:04;;;;;;;3.80;0.50;;;21.50;92.50;;;;;;5046865;28;20022;-71
2023/12/04 10:40:34;;;;;;;4.88;0.68;;;21.50;92.70;;;;;;5043905;28;20504;-72
2023/12/04 10:43:10;;;;;;;4.22;0.85;;;21.50;92.80;;;;;;5044843;28;20054;-74
2023/12/04 10:45:43;;;;;;;2.85;0.40;;;21.60;92.70;;;;;;5049283;28;20060;-72
2023/12/04 10:48:12;;;;;;;5.05;0.68;;;21.40;93.10;;;;;;5044205;28;20037;-73
2023/12/04 10:50:42;;;;;;;3.65;0.60;;;21.30;93.30;;;;;;5052435;28;20140;-72
2023/12/04 10:53:12;;;;;;;1.00;0.50;;;21.30;93.40;;;;;;5054513;28;20059;-72
2023/12/04 10:55:40;;;;;;;3.45;0.57;;;21.40;93.40;;;;;;5052816;28;20024;-72
2023/12/04 10:58:10;;;;;;;4.47;0.43;;;21.50;93.20;;;;;;5053676;28;20032;-72
2023/12/04 11:00:41;;;;;;;4.28;0.40;;;21.40;93.20;;;;;;5050429;28;20393;-72
2023/12/04 11:03:10;;;;;;;2.90;0.40;;;21.30;93.50;;;;;;5050647;28;20024;-71
2023/12/04 11:05:41;;;;;;;3.38;0.60;;;21.30;93.60;;;;;;5052190;28;20031;-71
2023/12/04 11:08:12;;;;;;;2.25;0.40;;;21.30;93.70;;;;;;5053747;28;20035;-72
2023/12/04 11:11:03;;;;;;;2.83;0.40;;;21.10;93.90;;;;;;5050605;28;20020;-72
2023/12/04 11:13:35;;;;;;;1.77;0.30;;;21.10;94.20;;;;;;5053850;28;20018;-72
2023/12/04 11:16:07;;;;;;;3.78;0.50;;;21.20;94.20;;;;;;5055454;28;20478;-73
2023/12/04 11:18:39;;;;;;;2.72;0.52;;;21.20;94.20;;;;;;5053402;28;20075;-75
2023/12/04 11:21:11;;;;;;;1.45;0.30;;;21.20;94.20;;;;;;5051905;28;20051;-74
2023/12/04 11:23:39;;;;;;;1.33;0.22;;;21.20;94.40;;;;;;5050462;28;20130;-72
2023/12/04 11:26:08;;;;;;;5.00;0.40;;;21.20;94.40;;;;;;5046036;28;20025;-72
2023/12/04 11:28:38;;;;;;;2.85;0.50;;;21.20;94.50;;;;;;5057501;28;20465;-72
2023/12/04 11:31:06;;;;;;;2.90;0.40;;;21.00;94.60;;;;;;5050213;28;20029;-71
2023/12/04 11:33:38;;;;;;;3.55;0.57;;;21.00;94.80;;;;;;5052757;28;20492;-71
2023/12/04 11:36:16;;;;;;;3.10;0.52;;;20.80;95.00;;;;;;5051131;28;20064;-72
2023/12/04 11:38:46;;;;;;;;;;;20.70;95.30;;;;;;5054561;28;20111;-71
2023/12/04 11:41:32;;;;;;;1.88;0.60;;;20.60;95.50;;;;;;5052915;28;20015;-71
2023/12/04 11:43:59;;;;;;;3.85;0.70;;;20.60;95.70;;;;;;5045210;28;20033;-74
2023/12/04 11:46:28;;;;;;;3.25;0.65;;;20.60;95.80;;;;;;5051326;28;20351;-72
2023/12/04 11:49:22;;;;;;;2.97;0.40;;;20.60;95.80;;;;;;5053916;28;20021;-72
2023/12/04 11:51:52;;;;;;;6.80;0.60;;;20.50;95.90;;;;;;5043069;28;20076;-72
2023/12/04 11:54:25;;;;;;;1.35;0.38;;;20.40;96.30;;;;;;5046858;28;20081;-73
2023/12/04 11:57:21;;;;;;;0.90;0.38;;;20.30;96.40;;;;;;5053387;28;20079;-73
2023/12/04 11:59:49;;;;;;;1.40;0.28;;;20.20;96.60;;;;;;5041457;28;20048;-73
2023/12/04 12:02:17;;;;;;;3.90;0.38;;;20.10;96.80;;;;;;5039781;28;20028;-73
2023/12/04 12:04:51;;;;;;;2.70;0.47;;;20.20;96.70;;;;;;5038949;28;20036;-72
2023/12/04 12:07:25;;;;;;;3.17;0.50;;;20.30;96.50;;;;;;5047193;28;20437;-72
2023/12/04 12:09:53;;;;;;;2.65;0.40;;;20.20;96.70;;;;;;5044331;28;20120;-72
2023/12/04 12:12:20;;;;;;;3.53;0.40;;;20.20;96.90;;;;;;5055964;28;20033;-72
2023/12/04 12:14:52;;;;;;;2.00;0.30;;;20.30;96.60;;;;;;5048227;28;20417;-72
2023/12/04 12:17:27;;;;;;;3.05;0.52;;;20.20;96.70;;;;;;5052472;28;20401;-71
2023/12/04 12:20:02;;;;;;;3.20;0.50;;;20.20;96.60;;;;;;5048940;28;20055;-72
2023/12/04 12:22:41;;;;;;;3.58;0.40;;;20.00;96.80;;;;;;5058915;28;20481;-72
2023/12/04 12:25:12;;;;;;;2.70;0.60;;;20.00;97.10;;;;;;5049826;28;20031;-71
2023/12/04 12:27:45;;;;;;;2.22;0.57;;;20.00;97.10;;;;;;5054917;28;20030;-72
2023/12/04 12:30:18;;;;;;;5.28;0.40;;;20.00;97.10;;;;;;5053128;28;20044;-72
2023/12/04 12:32:58;;;;;;;1.38;0.47;;;19.90;97.40;;;;;;5052548;28;20120;-72
2023/12/04 12:35:29;;;;;;;5.30;0.52;;;19.90;97.30;;;;;;5059207;28;20111;-72
2023/12/04 12:37:56;;;;;;;1.95;0.50;;;19.80;97.40;;;;;;5047080;28;20052;-71
2023/12/04 12:40:24;;;;;;;5.55;0.43;;;19.90;97.50;;;;;;5052744;28;20032;-72
2023/12/04 12:42:51;;;;;;;4.03;0.80;;;19.80;97.60;;;;;;5056380;28;20029;-72
2023/12/04 12:45:19;;;;;;;2.97;0.52;;;19.70;97.80;;;;;;5049748;28;20045;-72
2023/12/04 12:47:47;;;;;;;4.35;0.93;;;19.60;97.90;;;;;;5050415;28;20035;-72
2023/12/04 12:50:15;;;;;;;5.65;0.95;;;19.60;98.10;;;;;;5052240;28;20040;-73
2023/12/04 12:52:44;;;;;;;4.35;0.75;;;19.60;98.20;;;;;;5052612;28;20083;-72
2023/12/04 12:55:12;;;;;;;3.08;0.30;;;19.60;98.20;;;;;;5050346;28;20029;-71